Castlemaine, Victoria

9:22 PM AEST on August 02, 2015 (GMT +1000)
Campbells Creek | | Change Station
CLOSE
Current Station
Personal Weather Station
Location: Campbells Creek, VIC
Elevation: 991 ft
Nearby Weather Stations

Elev 991 ft 37.09 °S, 144.21 °E | Updated 3 seconds ago

Mostly Cloudy
Mostly Cloudy
46.3 °F
Feels Like 46 °F
N
0.0
Wind Variable Wind from SSW
Gusts 5.0 mph

Today
High -- | Low -- °F
--% Chance of Precip.
Yesterday
High -- | Low -- °F
Precip. -- in
7:21 AM 5:37 PM
Waning Gibbous, 94% visible
Pressure 29.92 in
Visibility 6.2 miles
Clouds Few 2700 ft
Mostly Cloudy 3200 ft
Mostly Cloudy 4800 ft
Windchill 46 °F
Dew Point 40 °F
Humidity 78%
Rainfall 0.09 in
Snow Depth Not available.
UV 0 out of 12
Pollen Not available.
Air Quality Not available.
Flu Activity Not available.
SPECI YMML 021111Z 28015G26KT 9999 FEW027 BKN032 BKN048 09/05 Q1013 FM1111 MOD/SEV TURB BLW 5000FT

More Conditions Fewer Conditions

Pressure 29.92 in
Visibility 6.2 miles
Clouds Few 2700 ft
Mostly Cloudy 3200 ft
Mostly Cloudy 4800 ft
Windchill 46 °F
Dew Point 40 °F
Humidity 78%
Rainfall 0.09 in
Snow Depth Not available.
UV 0 out of 12
Pollen Not available.
Air Quality Not available.
Flu Activity Not available.
SPECI YMML 021111Z 28015G26KT 9999 FEW027 BKN032 BKN048 09/05 Q1013 FM1111 MOD/SEV TURB BLW 5000FT

More Conditions Fewer Conditions

10-Day Weather Forecast

×

Almanac

Astronomy

Aug. 02, 2015 Rise Set
Actual Time
Civil Twilight
Nautical Twilight
Astronomical Twilight
Moon
Length of Visible Light
Length of Day
Tomorrow will be .
, % of the Moon is Illuminated

Today's Extremes

Country Highs Country Lows

Community

WunderPhotos

Upload Photos

1,843,233 photos uploaded!

WunderBlogs® & News

Nearby

Air Quality

  Air Quality AQ Index Pollutant
Not available.

Snow Depth

Station Depth Elevation

Earthquake Activity

City Distance Mag. Time & Date
Minimum magnitude displayed is 2.5.

Coastal Water Temperatures

Place Temperature

Stations

Nearby Weather Stations

Station Location Temp. Windchill Dew Point Humidity Wind Precip. Elev Updated Type